Hovedside
METAR-TAF:

METAR-TAF

Lufthavner :

Volgograd, Russland

breddegrad: 48-47N, lengdegrad: 044-22E, høyde over havet: 145 m

Gjeldene værobservasjon

Denne rapporten ble laget for 18 minutter siden, klokken 15:30 UTC
Vind 19 kt fra Øst
Temperatur -4°C
Luftfuktighet 63%
Trykk 1039 hPa
Sikt 10 km eller mer
Brutte skyer i en høyde av 4600 ft

METAR: URWW 201530Z 08010MPS 9999 BKN046 M04/M10 Q1039 R06/010070 NOSIG

Tid: 19:48 (15:48 UTC)

Varsel

Denne rapporten ble laget for 1 time og 50 minutter siden, klokken 13:58 UTC
Varsel gyldig fra 20. klokken 15 UTC til 20. klokken 24 UTC
Vind 16 kt fra Øst med vindkast opp mot 27 kt
Sikt 10 km eller mer
Brutte skyer i en høyde av 1500 ft
Spredte skyer i en høyde av 2000 ft, Bygeskyer.
Midlertidig
fra 20. klokken 15 UTC til 20. klokken 24 UTC
Vind 19 kt fra Øst-nordøst med vindkast opp mot 31 kt
Sikt: 5000 m
lette snøbyger, snødrev

TAF: URWW 201358Z 2015/2024 09008G14MPS 9999 BKN015 SCT020CB TEMPO 2015/2024 07010G16MPS 5000 -SHSN BLSN

Værobservasjoner og værvarsel for over 4000 flyplasser (METAR- og TAF-rapporter).

Tilgjengelige stasjoner er representert av de røde og gule prikkene på kartet.

Hold musepekeren over prikken for å se navnet på stasjonen.

Klikk så for å se værobservasjoner og -varsler.

For å forandre kartet kan du klikke på den grønne knappen med svart kryss for å zoome inn, på den grønne knappen med strek for å zoome ut, eller på de grønne pilene for å se tilstøtende kart.


METAR-TAF: